Time;durP1;ratioP1;P1;durP2;ratioP2;P2;SDS_P1;SDS_P2;PMS_P1;PMS_P2;Temp;Humidity;BMP_temperature;BMP_pressure;BME280_temperature;BME280_humidity;BME280_pressure;Samples;Min_cycle;Max_cycle;Signal;HPM_P1;HPM_P2
2022/10/01 00:02:21;;;;;;;2.80;1.30;;;15.10;54.50;;;;;;4920226;29;20224;-36
2022/10/01 00:04:54;;;;;;;2.60;1.58;;;15.10;54.60;;;;;;4916642;29;20207;-37
2022/10/01 00:07:25;;;;;;;2.47;1.38;;;15.10;54.60;;;;;;4917174;29;20200;-37
2022/10/01 00:09:55;;;;;;;3.15;1.75;;;15.10;54.60;;;;;;4916964;29;20291;-38
2022/10/01 00:12:26;;;;;;;2.40;1.52;;;15.10;54.70;;;;;;4916333;29;20274;-36
2022/10/01 00:14:57;;;;;;;3.22;1.50;;;15.20;54.80;;;;;;4917249;29;20567;-35
2022/10/01 00:17:27;;;;;;;2.53;1.40;;;15.10;54.70;;;;;;4920040;29;20196;-36
2022/10/01 00:20:01;;;;;;;3.22;1.40;;;15.20;54.70;;;;;;4935036;29;20204;-35
2022/10/01 00:22:33;;;;;;;2.13;1.27;;;15.20;54.70;;;;;;4935430;29;20813;-34
2022/10/01 00:25:04;;;;;;;4.05;1.63;;;15.20;54.60;;;;;;4935338;29;20207;-40
2022/10/01 00:27:35;;;;;;;2.28;1.42;;;15.20;54.70;;;;;;4935504;29;20195;-38
2022/10/01 00:30:07;;;;;;;3.35;1.65;;;15.30;54.70;;;;;;4935207;29;20732;-40
2022/10/01 00:32:40;;;;;;;3.60;1.40;;;15.20;54.60;;;;;;4918929;29;20228;-39
2022/10/01 00:35:13;;;;;;;4.13;1.40;;;15.30;54.70;;;;;;4916399;29;20563;-37
2022/10/01 00:37:44;;;;;;;3.33;1.70;;;15.30;54.60;;;;;;4916457;29;20201;-35
2022/10/01 00:40:15;;;;;;;3.38;1.63;;;15.30;54.80;;;;;;4915213;29;20200;-34
2022/10/01 00:42:46;;;;;;;3.85;1.67;;;15.30;54.80;;;;;;4915836;29;20216;-42
2022/10/01 00:45:17;;;;;;;2.72;1.50;;;15.30;54.80;;;;;;4915923;29;20200;-38
2022/10/01 00:47:53;;;;;;;4.97;1.90;;;15.30;54.80;;;;;;4916026;29;20204;-37
2022/10/01 00:50:29;;;;;;;3.95;2.08;;;15.30;54.80;;;;;;4915604;29;20196;-37
2022/10/01 00:53:02;;;;;;;3.85;2.42;;;15.40;54.90;;;;;;4915893;29;20707;-40
2022/10/01 00:55:37;;;;;;;5.00;2.17;;;15.40;54.90;;;;;;4933496;29;20206;-37
2022/10/01 00:58:09;;;;;;;4.43;2.45;;;15.40;54.90;;;;;;4925946;29;20723;-40
2022/10/01 01:00:41;;;;;;;2.85;2.00;;;15.40;54.90;;;;;;4934197;29;20214;-42
2022/10/01 01:03:15;;;;;;;3.10;1.88;;;15.50;55.00;;;;;;4915896;29;20252;-35
2022/10/01 01:05:49;;;;;;;4.65;2.03;;;15.50;54.80;;;;;;4915754;29;20207;-35
2022/10/01 01:08:20;;;;;;;3.38;1.83;;;15.50;54.80;;;;;;4915468;29;20204;-37
2022/10/01 01:11:00;;;;;;;3.50;1.90;;;15.50;54.80;;;;;;4915109;29;20226;-40
2022/10/01 01:13:37;;;;;;;2.90;1.77;;;15.50;54.80;;;;;;4915583;29;20228;-35
2022/10/01 01:16:14;;;;;;;4.35;2.05;;;15.50;54.80;;;;;;4915643;29;20214;-35
2022/10/01 01:18:51;;;;;;;3.83;2.13;;;15.50;54.80;;;;;;4931754;29;20207;-34
2022/10/01 01:21:29;;;;;;;5.10;1.77;;;15.50;54.80;;;;;;4933690;29;20222;-37
2022/10/01 01:24:37;;;;;;;3.83;1.77;;;15.50;54.80;;;;;;4934232;29;20195;-37
2022/10/01 01:27:35;;;;;;;3.28;1.70;;;15.60;54.80;;;;;;4933512;29;20203;-34
2022/10/01 01:30:10;;;;;;;3.30;1.63;;;15.50;54.70;;;;;;4933795;29;20206;-36
2022/10/01 01:32:49;;;;;;;2.70;1.65;;;15.60;54.70;;;;;;4920506;29;20672;-34
2022/10/01 01:35:26;;;;;;;3.95;1.98;;;15.60;54.70;;;;;;4914744;29;20563;-38
2022/10/01 01:38:00;;;;;;;2.28;1.73;;;15.60;54.70;;;;;;4929883;29;20199;-36
2022/10/01 01:40:35;;;;;;;4.55;1.90;;;15.60;54.70;;;;;;4933551;29;20586;-43
2022/10/01 01:43:07;;;;;;;3.10;1.63;;;15.60;54.70;;;;;;4933218;29;20250;-35
2022/10/01 01:45:43;;;;;;;3.47;1.73;;;15.60;54.70;;;;;;4933813;29;20203;-35
2022/10/01 01:48:15;;;;;;;4.35;1.80;;;15.60;55.20;;;;;;4933819;29;20202;-40
2022/10/01 01:50:51;;;;;;;4.32;1.80;;;15.60;54.70;;;;;;4933929;29;20235;-35
2022/10/01 01:53:22;;;;;;;3.03;1.77;;;15.70;54.70;;;;;;4932675;29;20237;-35
2022/10/01 01:55:55;;;;;;;5.80;1.80;;;15.70;54.70;;;;;;4933260;29;20207;-35
2022/10/01 01:58:26;;;;;;;4.95;2.17;;;15.70;54.60;;;;;;4921372;29;20283;-35
2022/10/01 02:00:59;;;;;;;4.32;2.03;;;15.70;54.60;;;;;;4915801;29;20259;-37
2022/10/01 02:03:31;;;;;;;1.83;1.48;;;15.70;54.60;;;;;;4932669;29;20200;-37
2022/10/01 02:06:11;;;;;;;2.80;1.88;;;15.70;54.60;;;;;;4933708;29;20661;-35
2022/10/01 02:08:45;;;;;;;3.58;2.10;;;15.70;54.60;;;;;;4914347;29;20243;-35
2022/10/01 02:11:25;;;;;;;5.97;2.35;;;15.80;54.60;;;;;;4915166;29;20315;-34
2022/10/01 02:14:05;;;;;;;4.13;2.25;;;15.80;54.60;;;;;;4914652;29;20224;-38
2022/10/01 02:16:49;;;;;;;4.82;2.45;;;15.80;54.60;;;;;;4914711;29;20192;-35
2022/10/01 02:19:27;;;;;;;5.38;2.40;;;15.80;54.60;;;;;;4914822;29;20259;-42
2022/10/01 02:22:02;;;;;;;4.22;2.30;;;15.80;54.60;;;;;;4914302;29;20247;-35
2022/10/01 02:24:40;;;;;;;4.82;2.45;;;15.80;54.60;;;;;;4914613;29;20208;-35
2022/10/01 02:27:16;;;;;;;5.68;2.42;;;15.80;54.60;;;;;;4914649;29;20200;-34
2022/10/01 02:29:50;;;;;;;4.25;2.20;;;15.80;54.60;;;;;;4915034;29;20196;-35
2022/10/01 02:32:23;;;;;;;5.05;2.00;;;15.80;54.60;;;;;;4924212;29;20232;-34
2022/10/01 02:34:58;;;;;;;5.38;2.00;;;15.80;54.60;;;;;;4914609;29;20860;-39
2022/10/01 02:37:30;;;;;;;4.90;1.98;;;15.90;54.60;;;;;;4914294;29;20294;-38
2022/10/01 02:40:02;;;;;;;3.63;2.40;;;15.90;54.60;;;;;;4915181;29;20204;-46
2022/10/01 02:42:35;;;;;;;3.35;2.00;;;15.90;54.60;;;;;;4914253;29;20222;-35
2022/10/01 02:45:07;;;;;;;4.00;2.45;;;15.90;54.60;;;;;;4914742;29;20545;-38
2022/10/01 02:47:42;;;;;;;5.25;2.45;;;15.90;54.60;;;;;;4914589;29;20196;-39
2022/10/01 02:50:14;;;;;;;5.57;2.50;;;15.90;54.60;;;;;;4927841;29;20199;-37
2022/10/01 02:52:48;;;;;;;4.80;2.35;;;15.90;54.70;;;;;;4914633;29;20224;-35
2022/10/01 02:55:22;;;;;;;4.25;2.40;;;15.90;54.70;;;;;;4914639;29;20207;-40
2022/10/01 02:57:52;;;;;;;5.65;2.28;;;15.90;54.70;;;;;;4922661;29;20202;-37
2022/10/01 03:00:23;;;;;;;3.50;2.30;;;15.90;54.80;;;;;;4933469;29;20219;-36
2022/10/01 03:02:56;;;;;;;3.70;2.15;;;16.00;54.80;;;;;;4922939;29;20201;-35
2022/10/01 03:05:26;;;;;;;5.10;1.98;;;15.90;54.80;;;;;;4914566;29;20211;-35
2022/10/01 03:07:57;;;;;;;5.28;1.98;;;15.90;55.30;;;;;;4914272;29;20208;-39
2022/10/01 03:10:28;;;;;;;4.60;2.40;;;16.00;54.80;;;;;;4914182;29;20200;-35
2022/10/01 03:13:00;;;;;;;5.90;2.63;;;16.00;54.80;;;;;;4914199;29;20224;-37
2022/10/01 03:15:31;;;;;;;4.57;2.58;;;16.00;54.70;;;;;;4917466;29;20204;-36
2022/10/01 03:18:03;;;;;;;4.10;2.15;;;16.00;54.70;;;;;;4916873;29;20204;-41
2022/10/01 03:20:34;;;;;;;4.28;2.38;;;16.00;54.80;;;;;;4919617;29;20228;-36
2022/10/01 03:23:05;;;;;;;5.55;2.40;;;16.00;54.70;;;;;;4918758;29;20199;-35
2022/10/01 03:25:36;;;;;;;3.95;2.45;;;16.00;54.70;;;;;;4936272;29;20200;-38
2022/10/01 03:28:06;;;;;;;4.47;2.88;;;16.00;54.70;;;;;;4935539;29;20195;-36
2022/10/01 03:30:37;;;;;;;5.47;2.63;;;16.00;54.70;;;;;;4936566;29;20687;-34
2022/10/01 03:33:10;;;;;;;4.30;2.30;;;16.10;54.80;;;;;;4924642;29;20231;-46
2022/10/01 03:35:40;;;;;;;2.90;2.05;;;16.00;54.70;;;;;;4917951;29;20196;-35
2022/10/01 03:38:12;;;;;;;4.15;2.60;;;16.00;54.70;;;;;;4917498;29;20196;-37
2022/10/01 03:40:43;;;;;;;4.85;2.05;;;16.00;54.70;;;;;;4917659;29;20201;-35
2022/10/01 03:43:13;;;;;;;3.13;2.63;;;16.00;54.70;;;;;;4916403;29;20196;-37
2022/10/01 03:45:44;;;;;;;6.45;2.67;;;16.10;54.70;;;;;;4917290;29;20204;-35
2022/10/01 03:48:17;;;;;;;4.80;2.72;;;16.10;54.80;;;;;;4916654;29;20203;-37
2022/10/01 03:50:55;;;;;;;5.95;2.25;;;16.10;54.80;;;;;;4917404;29;20227;-38
2022/10/01 03:53:26;;;;;;;4.28;2.47;;;16.00;54.70;;;;;;4917426;29;20275;-35
2022/10/01 03:55:57;;;;;;;4.32;2.40;;;16.10;54.80;;;;;;4916407;29;20195;-38
2022/10/01 03:58:28;;;;;;;5.72;2.80;;;16.10;54.70;;;;;;4930034;29;20597;-34
2022/10/01 04:00:59;;;;;;;4.78;2.50;;;16.10;54.70;;;;;;4935782;29;20579;-34
2022/10/01 04:03:35;;;;;;;4.95;2.47;;;16.10;54.70;;;;;;4923877;29;20720;-44
2022/10/01 04:06:06;;;;;;;4.53;2.47;;;16.10;54.70;;;;;;4916968;29;20652;-36
2022/10/01 04:08:38;;;;;;;3.50;2.10;;;16.00;54.70;;;;;;4917408;29;20223;-37
2022/10/01 04:11:09;;;;;;;4.25;2.42;;;16.10;54.70;;;;;;4916737;29;20224;-34
2022/10/01 04:13:40;;;;;;;4.45;2.33;;;16.10;54.70;;;;;;4916786;29;20617;-39
2022/10/01 04:16:11;;;;;;;3.47;2.03;;;16.10;54.70;;;;;;4916422;29;20204;-41
2022/10/01 04:18:43;;;;;;;4.45;2.42;;;16.10;54.70;;;;;;4916544;29;20203;-40
2022/10/01 04:21:14;;;;;;;4.10;2.30;;;16.10;54.70;;;;;;4916150;29;20228;-39
2022/10/01 04:23:45;;;;;;;4.03;2.10;;;16.10;54.70;;;;;;4915962;29;20196;-34
2022/10/01 04:26:17;;;;;;;4.22;2.20;;;16.10;54.70;;;;;;4915860;29;20205;-34
2022/10/01 04:28:48;;;;;;;5.22;2.92;;;16.10;54.70;;;;;;4916365;29;20295;-38
2022/10/01 04:31:33;;;;;;;4.72;2.60;;;16.10;54.70;;;;;;4925909;29;20228;-34
2022/10/01 04:34:06;;;;;;;3.47;2.42;;;16.10;54.70;;;;;;4919916;29;20719;-37
2022/10/01 04:36:36;;;;;;;6.18;2.63;;;16.10;54.70;;;;;;4917124;29;20215;-40
2022/10/01 04:39:07;;;;;;;4.07;2.70;;;16.10;54.70;;;;;;4916524;29;20595;-36
2022/10/01 04:41:38;;;;;;;3.95;2.42;;;16.10;54.70;;;;;;4916655;29;20227;-37
2022/10/01 04:44:09;;;;;;;2.67;2.15;;;16.10;54.80;;;;;;4916019;29;20203;-38
2022/10/01 04:46:39;;;;;;;4.20;2.20;;;16.10;54.70;;;;;;4916815;29;20207;-34
2022/10/01 04:49:12;;;;;;;5.57;2.50;;;16.10;54.70;;;;;;4919966;29;20684;-35
2022/10/01 04:51:43;;;;;;;3.40;2.40;;;16.10;54.70;;;;;;4927882;29;20231;-34
2022/10/01 04:54:13;;;;;;;4.57;2.42;;;16.10;54.70;;;;;;4934190;29;20233;-34
2022/10/01 04:56:44;;;;;;;3.78;2.00;;;16.10;54.70;;;;;;4934046;29;20297;-35
2022/10/01 04:59:15;;;;;;;3.03;2.00;;;16.10;54.80;;;;;;4933860;29;20219;-34
2022/10/01 05:01:45;;;;;;;3.63;2.03;;;16.10;54.80;;;;;;4933878;29;20223;-37
2022/10/01 05:04:18;;;;;;;5.80;2.17;;;16.10;54.80;;;;;;4934261;29;20679;-35
2022/10/01 05:06:49;;;;;;;3.30;2.20;;;16.10;54.70;;;;;;4940666;29;20209;-34
2022/10/01 05:09:19;;;;;;;4.32;2.10;;;16.20;54.80;;;;;;4953014;28;20536;-43
2022/10/01 05:11:51;;;;;;;5.45;2.60;;;16.10;54.70;;;;;;4952658;28;20233;-34
2022/10/01 05:14:22;;;;;;;4.07;2.83;;;16.10;54.70;;;;;;4952786;28;20296;-34
2022/10/01 05:16:52;;;;;;;5.03;2.70;;;16.10;54.70;;;;;;4920144;28;20196;-35
2022/10/01 05:19:27;;;;;;;3.72;2.80;;;16.10;54.90;;;;;;4914504;29;20200;-35
2022/10/01 05:21:58;;;;;;;4.35;2.95;;;16.20;55.40;;;;;;4929646;29;20215;-35
2022/10/01 05:24:29;;;;;;;4.63;2.80;;;16.10;54.70;;;;;;4952639;28;20565;-38
2022/10/01 05:27:00;;;;;;;5.18;3.08;;;16.20;55.60;;;;;;4952431;28;20210;-39
2022/10/01 05:29:30;;;;;;;4.97;3.13;;;16.20;55.70;;;;;;4952717;28;20207;-35
2022/10/01 05:32:01;;;;;;;4.78;3.13;;;16.30;55.70;;;;;;4936821;28;20226;-35
2022/10/01 05:34:34;;;;;;;5.60;3.40;;;16.30;55.60;;;;;;4933054;29;20623;-35
2022/10/01 05:37:04;;;;;;;5.60;3.13;;;16.30;55.50;;;;;;4940549;29;20206;-35
2022/10/01 05:39:35;;;;;;;7.32;3.13;;;16.30;55.50;;;;;;4952575;28;20195;-37
2022/10/01 05:42:06;;;;;;;6.72;3.72;;;16.30;55.60;;;;;;4952376;28;20219;-34
2022/10/01 05:44:39;;;;;;;5.72;4.03;;;16.30;55.60;;;;;;4952539;28;20199;-35
2022/10/01 05:47:10;;;;;;;5.60;3.67;;;16.30;55.60;;;;;;4951858;28;20234;-34
2022/10/01 05:49:43;;;;;;;5.10;3.55;;;16.30;55.50;;;;;;4952221;28;20195;-35
2022/10/01 05:52:14;;;;;;;4.90;2.88;;;16.30;55.50;;;;;;4951576;28;20218;-39
2022/10/01 05:54:45;;;;;;;3.97;2.80;;;16.30;55.40;;;;;;4952161;28;20233;-35
2022/10/01 05:57:15;;;;;;;6.05;3.30;;;16.30;55.40;;;;;;4952335;28;20203;-38
2022/10/01 05:59:46;;;;;;;4.47;3.20;;;16.30;55.30;;;;;;4952019;28;20207;-38
2022/10/01 06:02:17;;;;;;;4.50;2.80;;;16.30;55.30;;;;;;4934235;28;20231;-34
2022/10/01 06:04:50;;;;;;;4.68;2.97;;;16.30;55.30;;;;;;4933218;29;20200;-36
2022/10/01 06:07:21;;;;;;;4.47;2.95;;;16.30;55.30;;;;;;4941439;29;20194;-39
2022/10/01 06:09:52;;;;;;;4.80;3.35;;;16.30;55.20;;;;;;4951801;28;20203;-37
2022/10/01 06:12:22;;;;;;;5.43;3.30;;;16.30;55.30;;;;;;4951434;28;20703;-38
2022/10/01 06:14:53;;;;;;;3.50;3.20;;;16.30;55.30;;;;;;4951686;28;20687;-37
2022/10/01 06:17:24;;;;;;;6.47;3.05;;;16.20;55.20;;;;;;4951981;28;20210;-35
2022/10/01 06:19:56;;;;;;;5.93;2.90;;;16.30;55.30;;;;;;4952173;28;20674;-41
2022/10/01 06:22:27;;;;;;;4.05;2.85;;;16.30;55.20;;;;;;4951179;28;20229;-36
2022/10/01 06:24:58;;;;;;;5.60;3.05;;;16.30;55.20;;;;;;4951769;28;20213;-34
2022/10/01 06:27:29;;;;;;;4.95;3.00;;;16.20;55.10;;;;;;4952033;28;20198;-39
2022/10/01 06:29:59;;;;;;;4.32;3.15;;;16.30;55.20;;;;;;4951813;28;20241;-34
2022/10/01 06:32:30;;;;;;;3.80;2.80;;;16.30;55.20;;;;;;4918122;29;20224;-35
2022/10/01 06:35:03;;;;;;;5.13;3.00;;;16.30;55.20;;;;;;4931635;29;20234;-36
2022/10/01 06:37:37;;;;;;;5.95;3.25;;;16.30;55.20;;;;;;4940536;29;20210;-37
2022/10/01 06:40:09;;;;;;;4.25;3.00;;;16.20;55.10;;;;;;4951827;28;20205;-36
2022/10/01 06:42:40;;;;;;;5.40;2.92;;;16.20;55.10;;;;;;4951722;28;20302;-34
2022/10/01 06:45:11;;;;;;;4.78;3.10;;;16.30;55.20;;;;;;4951667;28;20238;-34
2022/10/01 06:47:42;;;;;;;4.93;3.00;;;16.20;55.10;;;;;;4951870;28;20195;-34
2022/10/01 06:50:14;;;;;;;4.28;3.17;;;16.20;55.10;;;;;;4955367;28;20209;-35
2022/10/01 06:52:51;;;;;;;5.68;3.50;;;16.20;55.10;;;;;;4944149;28;20499;-34
2022/10/01 06:55:23;;;;;;;4.18;2.83;;;16.20;55.10;;;;;;4935992;29;20738;-35
2022/10/01 06:57:58;;;;;;;5.35;3.00;;;16.20;55.10;;;;;;4924746;29;20204;-35
2022/10/01 07:00:29;;;;;;;5.10;3.17;;;16.20;55.20;;;;;;4936166;29;20206;-34
2022/10/01 07:03:00;;;;;;;4.57;3.38;;;16.20;55.00;;;;;;4936290;29;20203;-35
2022/10/01 07:05:33;;;;;;;5.38;3.28;;;16.20;55.00;;;;;;4936281;29;20221;-35
2022/10/01 07:08:04;;;;;;;4.70;3.08;;;16.20;55.00;;;;;;4947032;29;20199;-37
2022/10/01 07:10:35;;;;;;;4.55;3.10;;;16.20;55.00;;;;;;4926678;28;20200;-34
2022/10/01 07:13:15;;;;;;;4.50;3.30;;;16.20;55.00;;;;;;4916616;29;20204;-34
2022/10/01 07:15:46;;;;;;;3.97;2.92;;;16.20;55.00;;;;;;4916692;29;20234;-35
2022/10/01 07:18:17;;;;;;;4.55;3.28;;;16.20;55.10;;;;;;4916953;29;20199;-35
2022/10/01 07:20:50;;;;;;;3.80;3.13;;;16.10;55.00;;;;;;4916817;29;20618;-41
2022/10/01 07:23:23;;;;;;;4.68;3.15;;;16.10;55.10;;;;;;4942048;29;20214;-35
2022/10/01 07:25:54;;;;;;;4.30;3.33;;;16.10;55.10;;;;;;4954592;28;20582;-37
2022/10/01 07:28:25;;;;;;;5.18;3.40;;;16.10;55.10;;;;;;4944986;28;20198;-35
2022/10/01 07:31:02;;;;;;;3.08;2.78;;;16.10;55.10;;;;;;4935672;29;20873;-34
2022/10/01 07:33:33;;;;;;;5.72;3.35;;;16.20;55.10;;;;;;4935601;29;20207;-34
2022/10/01 07:36:07;;;;;;;5.88;3.40;;;16.10;55.00;;;;;;4935338;29;20568;-34
2022/10/01 07:38:38;;;;;;;3.88;3.20;;;16.10;55.00;;;;;;4949040;29;20214;-35
2022/10/01 07:41:08;;;;;;;5.57;3.10;;;16.10;55.00;;;;;;4954458;28;20218;-34
2022/10/01 07:43:41;;;;;;;4.80;3.70;;;16.10;55.00;;;;;;4954405;28;20207;-35
2022/10/01 07:46:11;;;;;;;4.97;3.22;;;16.10;55.00;;;;;;4954544;28;21037;-36
2022/10/01 07:48:45;;;;;;;3.90;3.03;;;16.10;55.00;;;;;;4954768;28;20210;-46
2022/10/01 07:51:17;;;;;;;3.33;2.95;;;16.10;55.10;;;;;;4954428;28;20314;-35
2022/10/01 07:53:49;;;;;;;4.63;3.13;;;16.10;55.00;;;;;;4953844;28;20752;-34
2022/10/01 07:56:20;;;;;;;3.60;3.00;;;16.10;55.10;;;;;;4939881;28;20855;-35
2022/10/01 07:58:51;;;;;;;5.13;3.00;;;16.10;55.10;;;;;;4922401;29;20204;-34
2022/10/01 08:01:21;;;;;;;4.03;3.17;;;16.10;55.10;;;;;;4915259;29;20219;-37
2022/10/01 08:03:53;;;;;;;4.45;3.25;;;16.10;55.10;;;;;;4916052;29;20560;-42
2022/10/01 08:06:25;;;;;;;3.75;2.88;;;16.10;55.10;;;;;;4934462;29;20207;-35
2022/10/01 08:08:56;;;;;;;3.78;2.80;;;16.10;55.10;;;;;;4949578;29;20195;-35
2022/10/01 08:11:27;;;;;;;5.30;3.15;;;16.20;55.10;;;;;;4953926;28;20666;-34
2022/10/01 08:13:57;;;;;;;6.25;3.35;;;16.10;55.10;;;;;;4953880;28;20209;-34
2022/10/01 08:16:28;;;;;;;4.22;3.20;;;16.10;55.10;;;;;;4953892;28;20206;-34
2022/10/01 08:18:59;;;;;;;4.32;3.40;;;16.10;55.10;;;;;;4953627;28;20206;-34
2022/10/01 08:21:34;;;;;;;4.50;3.40;;;16.10;55.20;;;;;;4953116;28;20273;-35
2022/10/01 08:24:05;;;;;;;5.68;3.20;;;16.10;55.20;;;;;;4953196;28;20947;-37
2022/10/01 08:26:36;;;;;;;4.22;2.90;;;16.10;55.20;;;;;;4941560;28;20546;-35
2022/10/01 08:29:06;;;;;;;5.07;3.15;;;16.00;55.20;;;;;;4934594;29;20211;-37
2022/10/01 08:31:37;;;;;;;5.53;3.55;;;16.00;55.20;;;;;;4934583;29;20593;-35
2022/10/01 08:34:08;;;;;;;4.32;3.20;;;16.10;55.20;;;;;;4934448;29;20228;-37
2022/10/01 08:36:41;;;;;;;5.35;3.20;;;16.00;55.20;;;;;;4934858;29;20234;-34
2022/10/01 08:39:13;;;;;;;4.05;3.00;;;16.10;55.80;;;;;;4936716;29;20207;-34
2022/10/01 08:41:54;;;;;;;4.28;3.08;;;16.00;55.20;;;;;;4934353;29;20254;-35
2022/10/01 08:44:32;;;;;;;4.13;3.40;;;16.10;55.80;;;;;;4934275;29;20204;-34
2022/10/01 08:47:08;;;;;;;3.47;3.10;;;16.10;55.20;;;;;;4934362;29;20211;-35
2022/10/01 08:49:44;;;;;;;4.30;3.25;;;16.00;55.10;;;;;;4934191;29;20215;-35
2022/10/01 08:52:24;;;;;;;4.75;3.13;;;16.00;55.10;;;;;;4933788;29;20700;-35
2022/10/01 08:54:57;;;;;;;7.00;4.07;;;16.00;55.10;;;;;;4915052;29;20239;-34
2022/10/01 08:57:32;;;;;;;5.47;4.05;;;16.00;55.20;;;;;;4924516;29;20648;-40
2022/10/01 09:00:06;;;;;;;5.35;3.95;;;16.00;55.20;;;;;;4933789;29;20717;-41
2022/10/01 09:02:40;;;;;;;5.18;3.65;;;16.00;55.20;;;;;;4933812;29;20229;-37
2022/10/01 09:05:22;;;;;;;4.15;3.38;;;16.00;55.20;;;;;;4934385;29;20199;-41
2022/10/01 09:08:06;;;;;;;5.75;4.43;;;16.00;55.20;;;;;;4935687;29;20222;-35
2022/10/01 09:10:46;;;;;;;5.30;3.85;;;16.00;55.20;;;;;;4933545;29;20207;-34
2022/10/01 09:13:46;;;;;;;4.63;3.67;;;16.00;55.20;;;;;;4933569;29;20652;-38
2022/10/01 09:16:26;;;;;;;5.15;3.67;;;16.00;55.20;;;;;;4930757;29;20283;-39
2022/10/01 09:19:10;;;;;;;4.55;3.50;;;16.00;55.20;;;;;;4914103;29;20684;-37
2022/10/01 09:21:51;;;;;;;4.28;3.45;;;16.00;55.20;;;;;;4913691;29;20220;-35
2022/10/01 09:24:32;;;;;;;5.22;3.72;;;16.00;55.20;;;;;;4946958;29;20601;-37
2022/10/01 09:27:03;;;;;;;6.10;3.97;;;16.00;55.20;;;;;;4952179;28;20203;-35
2022/10/01 09:29:42;;;;;;;4.78;3.50;;;15.90;55.10;;;;;;4952484;28;20229;-35
2022/10/01 09:32:18;;;;;;;4.63;3.53;;;15.90;55.20;;;;;;4952544;28;20226;-34
2022/10/01 09:34:48;;;;;;;4.88;3.35;;;15.90;55.20;;;;;;4952531;28;20243;-34
2022/10/01 09:37:29;;;;;;;3.72;3.38;;;15.90;55.30;;;;;;4952808;28;20202;-35
2022/10/01 09:40:19;;;;;;;4.15;3.30;;;15.90;55.30;;;;;;4933543;28;20279;-34
2022/10/01 09:42:50;;;;;;;5.28;3.67;;;15.90;55.20;;;;;;4932770;29;20215;-35
2022/10/01 09:45:23;;;;;;;4.15;3.30;;;15.90;55.20;;;;;;4932835;29;20203;-41
2022/10/01 09:47:56;;;;;;;5.63;3.70;;;16.00;55.30;;;;;;4932846;29;20203;-36
2022/10/01 09:50:32;;;;;;;5.05;3.40;;;15.90;55.20;;;;;;4933402;29;20211;-34
2022/10/01 09:53:03;;;;;;;4.63;3.13;;;15.90;55.20;;;;;;4935595;29;20695;-34
2022/10/01 09:55:40;;;;;;;4.90;3.67;;;15.90;55.20;;;;;;4952232;28;20725;-34
2022/10/01 09:58:14;;;;;;;4.30;3.40;;;15.90;55.30;;;;;;4952127;28;20194;-35
2022/10/01 10:00:47;;;;;;;4.13;3.30;;;15.90;55.30;;;;;;4952317;28;20582;-35
2022/10/01 10:03:26;;;;;;;4.93;3.38;;;15.90;55.30;;;;;;4952167;28;20209;-38
2022/10/01 10:05:56;;;;;;;3.75;3.03;;;15.90;55.30;;;;;;4952069;28;20198;-34
2022/10/01 10:08:30;;;;;;;5.65;3.60;;;15.90;55.30;;;;;;4950475;28;20191;-35
2022/10/01 10:11:06;;;;;;;4.82;3.30;;;15.90;55.40;;;;;;4951569;28;20564;-34
2022/10/01 10:13:38;;;;;;;4.70;3.15;;;15.90;55.30;;;;;;4952089;28;20210;-37
2022/10/01 10:16:17;;;;;;;4.55;3.15;;;15.90;55.30;;;;;;4952033;28;20266;-35
2022/10/01 10:18:52;;;;;;;4.25;3.13;;;15.90;55.40;;;;;;4951895;28;20206;-49
2022/10/01 10:21:26;;;;;;;4.32;3.28;;;15.90;55.30;;;;;;4951930;28;20306;-34
2022/10/01 10:23:59;;;;;;;4.40;3.65;;;15.90;55.30;;;;;;4950858;28;20221;-35
2022/10/01 10:26:34;;;;;;;4.50;3.40;;;15.90;55.30;;;;;;4951685;28;20218;-35
2022/10/01 10:29:06;;;;;;;4.00;3.38;;;15.90;55.70;;;;;;4951955;28;20205;-34
2022/10/01 10:31:43;;;;;;;3.60;3.17;;;15.90;55.40;;;;;;4951720;28;20892;-34
2022/10/01 10:34:18;;;;;;;4.32;3.28;;;15.90;55.40;;;;;;4951508;28;20205;-35
2022/10/01 10:36:52;;;;;;;4.60;3.20;;;15.80;55.40;;;;;;4951447;28;20226;-35
2022/10/01 10:39:28;;;;;;;4.45;2.90;;;15.80;55.40;;;;;;4949086;28;20206;-35
2022/10/01 10:42:02;;;;;;;4.72;3.13;;;15.80;55.40;;;;;;4951564;28;20219;-35
2022/10/01 10:44:37;;;;;;;3.83;3.00;;;15.80;55.50;;;;;;4951809;28;20202;-34
2022/10/01 10:47:12;;;;;;;4.07;3.15;;;15.80;55.50;;;;;;4951637;28;20226;-35
2022/10/01 10:49:47;;;;;;;4.00;2.70;;;15.80;55.40;;;;;;4932512;29;20199;-34
2022/10/01 10:52:28;;;;;;;4.13;2.50;;;15.90;56.30;;;;;;4932735;29;20600;-39
2022/10/01 10:55:00;;;;;;;3.17;2.25;;;15.90;57.30;;;;;;4947485;29;20227;-37
2022/10/01 10:57:35;;;;;;;4.18;2.67;;;16.00;58.80;;;;;;4951026;28;20207;-35
2022/10/01 11:00:16;;;;;;;4.72;2.83;;;16.00;58.70;;;;;;4951216;28;20752;-34
2022/10/01 11:02:55;;;;;;;5.82;2.72;;;16.00;58.50;;;;;;4951411;28;20234;-34
2022/10/01 11:05:30;;;;;;;7.70;3.50;;;16.10;58.50;;;;;;4951361;28;20588;-37
2022/10/01 11:08:05;;;;;;;6.38;2.70;;;16.10;58.50;;;;;;4915589;29;20207;-36
2022/10/01 11:10:42;;;;;;;5.53;2.42;;;16.10;58.50;;;;;;4912621;29;20573;-35
2022/10/01 11:13:31;;;;;;;5.75;3.42;;;16.10;58.50;;;;;;4912580;29;20287;-34
2022/10/01 11:16:15;;;;;;;3.05;2.45;;;16.10;58.50;;;;;;4913402;29;20232;-34
2022/10/01 11:18:57;;;;;;;9.02;4.75;;;16.10;58.30;;;;;;4913633;29;20196;-34
2022/10/01 11:21:57;;;;;;;4.15;2.60;;;16.10;58.50;;;;;;4928178;29;20360;-35
2022/10/01 11:24:49;;;;;;;5.22;3.08;;;16.10;58.50;;;;;;4941547;29;20199;-34
2022/10/01 11:27:29;;;;;;;5.20;2.60;;;16.20;58.40;;;;;;4951209;28;20199;-34
2022/10/01 11:30:08;;;;;;;4.80;3.10;;;16.10;58.30;;;;;;4951147;29;20195;-34
2022/10/01 11:32:44;;;;;;;5.72;2.90;;;16.10;58.20;;;;;;4950841;28;20219;-34
2022/10/01 11:35:52;;;;;;;4.20;3.22;;;16.10;58.10;;;;;;4953459;28;20257;-37
2022/10/01 11:38:42;;;;;;;4.53;3.05;;;16.10;58.20;;;;;;4948604;28;20199;-40
2022/10/01 11:41:22;;;;;;;4.57;2.90;;;16.10;58.10;;;;;;4954333;28;20222;-35
2022/10/01 11:43:56;;;;;;;3.78;2.88;;;16.10;58.10;;;;;;4954747;28;20203;-35
2022/10/01 11:46:44;;;;;;;4.38;2.75;;;16.00;58.10;;;;;;4954529;28;20203;-34
2022/10/01 11:49:28;;;;;;;5.50;2.83;;;16.00;57.90;;;;;;4954238;28;20210;-34
2022/10/01 11:52:09;;;;;;;6.28;4.30;;;16.00;57.90;;;;;;4954309;28;20215;-37
2022/10/01 11:54:54;;;;;;;4.43;3.15;;;16.00;58.10;;;;;;4953754;28;20205;-39
2022/10/01 12:00:27;;;;;;;5.07;3.40;;;16.10;58.50;;;;;;4932251;29;20254;-34
2022/10/01 12:03:03;;;;;;;5.05;3.00;;;16.00;58.30;;;;;;4932416;29;20203;-39
2022/10/01 12:05:37;;;;;;;5.07;3.30;;;16.00;58.30;;;;;;4944060;28;20211;-37
2022/10/01 12:08:14;;;;;;;4.25;3.25;;;16.00;58.20;;;;;;4950506;28;20266;-34
2022/10/01 12:10:51;;;;;;;3.13;2.67;;;16.00;58.10;;;;;;4952116;28;20194;-34
2022/10/01 12:13:31;;;;;;;5.65;3.55;;;16.00;58.10;;;;;;4953674;28;20199;-36
2022/10/01 12:16:08;;;;;;;5.03;3.60;;;16.00;58.00;;;;;;4953619;28;20741;-37
2022/10/01 12:18:53;;;;;;;5.22;2.85;;;16.00;57.90;;;;;;4954199;28;20282;-37
2022/10/01 12:21:28;;;;;;;4.43;3.00;;;16.00;57.80;;;;;;4954056;28;20251;-38
2022/10/01 12:24:03;;;;;;;4.93;3.08;;;15.90;57.80;;;;;;4953511;28;20237;-36
2022/10/01 12:26:44;;;;;;;4.03;2.83;;;15.90;57.80;;;;;;4953813;28;20550;-34
2022/10/01 12:29:23;;;;;;;4.25;2.83;;;15.90;57.70;;;;;;4953785;28;20203;-35
2022/10/01 12:32:01;;;;;;;4.43;3.08;;;15.90;57.70;;;;;;4953684;28;20421;-34
2022/10/01 12:34:46;;;;;;;4.13;2.80;;;15.90;57.60;;;;;;4953681;28;20238;-34
2022/10/01 12:37:26;;;;;;;5.93;2.92;;;15.90;57.60;;;;;;4953325;28;20281;-37
2022/10/01 12:40:09;;;;;;;4.13;2.97;;;15.90;57.60;;;;;;4944560;28;20290;-35
2022/10/01 12:43:00;;;;;;;3.45;2.47;;;15.90;57.60;;;;;;4952980;28;20725;-36
2022/10/01 12:45:38;;;;;;;4.97;3.05;;;15.90;57.60;;;;;;4952754;28;20690;-34
2022/10/01 12:48:14;;;;;;;3.38;2.63;;;15.90;57.50;;;;;;4953182;28;20202;-34
2022/10/01 12:50:55;;;;;;;5.38;2.95;;;15.90;57.50;;;;;;4953208;28;20198;-34
2022/10/01 12:53:36;;;;;;;3.83;2.72;;;15.90;57.50;;;;;;4953542;28;20647;-34
2022/10/01 12:56:14;;;;;;;4.55;2.78;;;15.80;57.50;;;;;;4942980;28;20233;-35
2022/10/01 12:58:56;;;;;;;3.70;2.63;;;15.80;57.50;;;;;;4933379;29;20292;-39
2022/10/01 13:01:41;;;;;;;3.58;2.70;;;15.80;57.40;;;;;;4933710;29;20227;-35
2022/10/01 13:04:27;;;;;;;3.33;2.40;;;15.80;57.40;;;;;;4934333;29;20200;-35
2022/10/01 13:07:16;;;;;;;4.47;2.80;;;15.80;57.40;;;;;;4934080;29;20199;-34
2022/10/01 13:09:56;;;;;;;3.70;2.50;;;15.80;57.30;;;;;;4940519;29;20206;-35
2022/10/01 13:12:46;;;;;;;3.28;2.55;;;15.80;57.30;;;;;;4952599;28;20720;-34
2022/10/01 13:15:20;;;;;;;4.03;2.63;;;15.80;57.30;;;;;;4952526;28;20202;-37
2022/10/01 13:17:56;;;;;;;3.20;2.47;;;15.80;57.30;;;;;;4953265;28;20203;-34
2022/10/01 13:20:36;;;;;;;4.07;2.63;;;15.80;57.30;;;;;;4952943;28;20205;-34
2022/10/01 13:23:14;;;;;;;4.70;2.97;;;15.80;57.30;;;;;;4952895;28;20677;-35
2022/10/01 13:25:51;;;;;;;3.42;2.70;;;15.70;57.20;;;;;;4923622;29;20192;-38
2022/10/01 13:28:29;;;;;;;3.67;2.30;;;15.70;57.20;;;;;;4914584;29;20211;-34
2022/10/01 13:31:02;;;;;;;3.15;2.50;;;15.70;57.30;;;;;;4914342;29;20239;-34